Time;durP1;ratioP1;P1;durP2;ratioP2;P2;SDS_P1;SDS_P2;PMS_P1;PMS_P2;Temp;Humidity;BMP_temperature;BMP_pressure;BME280_temperature;BME280_humidity;BME280_pressure;Samples;Min_cycle;Max_cycle;Signal;HPM_P1;HPM_P2
2022/07/22 00:01:44;;;;;;;;;35.00;30.00;;;;;22.47;60.51;101614.72;5078083;27;45328;-56
2022/07/22 00:04:10;;;;;;;;;27.00;25.00;;;;;22.42;62.13;101606.38;5078286;27;45426;-58
2022/07/22 00:06:35;;;;;;;;;24.25;22.50;;;;;22.42;60.88;101598.25;5077537;27;46017;-55
2022/07/22 00:09:00;;;;;;;;;24.50;24.25;;;;;22.27;61.41;101587.56;5077797;27;45339;-55
2022/07/22 00:11:26;;;;;;;;;28.75;24.25;;;;;22.26;61.54;101596.72;5077974;27;45451;-57
2022/07/22 00:13:51;;;;;;;;;22.25;21.75;;;;;22.31;61.55;101601.53;5077947;27;45458;-56
2022/07/22 00:16:17;;;;;;;;;30.00;22.50;;;;;22.30;61.50;101608.00;5076207;27;47359;-54
2022/07/22 00:18:42;;;;;;;;;27.75;22.25;;;;;22.29;62.39;101606.31;5077845;27;45454;-54
2022/07/22 00:21:08;;;;;;;;;25.25;21.75;;;;;22.23;62.36;101601.72;5077723;27;45324;-58
2022/07/22 00:23:33;;;;;;;;;29.00;24.25;;;;;22.26;62.03;101598.59;5078183;27;45308;-55
2022/07/22 00:25:59;;;;;;;;;23.00;22.75;;;;;22.29;62.19;101609.03;5076131;28;48212;-55
2022/07/22 00:28:24;;;;;;;;;28.00;23.50;;;;;22.26;62.13;101604.03;5077510;27;45380;-56
2022/07/22 00:30:50;;;;;;;;;27.50;25.00;;;;;22.23;61.97;101604.44;5077620;27;45522;-55
2022/07/22 00:33:15;;;;;;;;;31.00;23.50;;;;;22.19;61.42;101603.16;5077849;27;45337;-53
2022/07/22 00:35:40;;;;;;;;;24.00;22.25;;;;;22.13;61.24;101593.97;5077170;27;45331;-55
2022/07/22 00:38:06;;;;;;;;;24.50;22.00;;;;;22.07;61.97;101595.56;5077501;27;45292;-55
2022/07/22 00:40:31;;;;;;;;;24.25;22.00;;;;;22.06;61.96;101593.91;5077348;27;45366;-54
2022/07/22 00:42:56;;;;;;;;;24.25;19.50;;;;;22.06;61.22;101593.91;5077939;27;45301;-56
2022/07/22 00:45:22;;;;;;;;;24.25;21.50;;;;;22.03;61.81;101590.75;5077141;28;45525;-55
2022/07/22 00:47:47;;;;;;;;;24.25;19.75;;;;;21.95;62.36;101591.75;5077427;27;45170;-58
2022/07/22 00:50:14;;;;;;;;;27.00;21.75;;;;;21.97;62.36;101594.28;5077648;27;45315;-55
2022/07/22 00:52:41;;;;;;;;;24.75;22.50;;;;;21.91;62.79;101587.78;5077535;27;45415;-56
2022/07/22 00:55:07;;;;;;;;;21.25;19.50;;;;;21.91;62.24;101587.78;5077228;27;46744;-57
2022/07/22 00:57:33;;;;;;;;;20.00;19.50;;;;;21.88;62.59;101588.19;5075771;27;45516;-56
2022/07/22 00:59:59;;;;;;;;;23.75;21.25;;;;;21.84;62.80;101582.34;5077440;27;45257;-56
2022/07/22 01:02:24;;;;;;;;;26.25;24.00;;;;;21.82;62.51;101580.84;5077290;28;45439;-56
2022/07/22 01:04:50;;;;;;;;;23.50;18.00;;;;;21.77;62.72;101572.50;5076795;28;46169;-55
2022/07/22 01:07:16;;;;;;;;;24.75;20.25;;;;;21.76;62.63;101576.25;5077251;28;45253;-55
2022/07/22 01:09:45;;;;;;;;;22.75;21.00;;;;;21.71;62.48;101566.03;5077308;27;45269;-58
2022/07/22 01:12:11;;;;;;;;;19.75;17.50;;;;;21.71;62.76;101582.28;5077538;27;45369;-57
2022/07/22 01:14:37;;;;;;;;;28.00;20.00;;;;;21.63;62.24;101564.31;5076944;27;46256;-54
2022/07/22 01:17:02;;;;;;;;;25.00;20.50;;;;;21.64;62.50;101574.09;5076653;28;45431;-56
2022/07/22 01:19:28;;;;;;;;;17.75;17.25;;;;;21.58;62.57;101583.03;5080075;27;45356;-55
2022/07/22 01:21:53;;;;;;;;;22.25;20.00;;;;;21.55;63.36;101571.75;5080844;27;45312;-57
2022/07/22 01:24:19;;;;;;;;;22.50;19.75;;;;;21.55;62.42;101571.75;5080468;27;45398;-57
2022/07/22 01:26:45;;;;;;;;;22.50;19.25;;;;;21.52;62.59;101569.44;5080587;27;45459;-55
2022/07/22 01:29:10;;;;;;;;;18.50;17.25;;;;;21.51;62.66;101565.91;5080435;27;45301;-54
2022/07/22 01:31:36;;;;;;;;;21.00;17.00;;;;;21.50;63.48;101571.53;5080967;27;45185;-57
2022/07/22 01:34:01;;;;;;;;;26.50;22.00;;;;;21.48;63.00;101566.28;5080247;27;45235;-60
2022/07/22 01:36:27;;;;;;;;;21.25;18.25;;;;;21.42;62.60;101557.09;5080221;27;45281;-55
2022/07/22 01:38:52;;;;;;;;;22.33;19.67;;;;;21.47;63.78;101567.34;5080642;27;45257;-55
2022/07/22 01:41:18;;;;;;;;;23.25;18.25;;;;;21.45;62.75;101569.41;5080594;27;45451;-55
2022/07/22 01:43:43;;;;;;;;;21.67;20.67;;;;;21.41;63.76;101574.38;5080046;27;46186;-56
2022/07/22 01:46:09;;;;;;;;;20.25;19.50;;;;;21.41;63.12;101573.56;5079908;27;45383;-55
2022/07/22 01:48:34;;;;;;;;;20.00;17.50;;;;;21.40;63.52;101566.44;5080261;27;45371;-55
2022/07/22 01:51:00;;;;;;;;;21.00;20.00;;;;;21.38;63.69;101572.06;5080272;27;45546;-62
2022/07/22 01:53:25;;;;;;;;;20.67;20.67;;;;;21.35;63.09;101564.34;5079984;27;45449;-56
2022/07/22 01:55:51;;;;;;;;;27.25;20.50;;;;;21.35;63.47;101566.22;5080086;28;45688;-56
2022/07/22 01:58:17;;;;;;;;;22.75;18.75;;;;;21.33;63.06;101557.47;5080347;27;45368;-55
2022/07/22 02:00:43;;;;;;;;;20.25;18.75;;;;;21.32;63.48;101563.88;5080314;27;45298;-58
2022/07/22 02:03:10;;;;;;;;;20.00;18.50;;;;;21.25;63.29;101549.47;5079450;27;46044;-55
2022/07/22 02:05:36;;;;;;;;;21.00;18.75;;;;;21.27;63.36;101556.34;5079588;27;45388;-56
2022/07/22 02:08:03;;;;;;;;;22.75;17.75;;;;;21.25;63.53;101558.41;5079993;27;45217;-55
2022/07/22 02:10:29;;;;;;;;;26.00;19.75;;;;;21.18;62.53;101547.53;5079581;27;45335;-58
2022/07/22 02:12:55;;;;;;;;;24.00;19.50;;;;;21.20;63.23;101554.63;5079562;27;46064;-56
2022/07/22 02:15:21;;;;;;;;;21.00;15.50;;;;;21.07;63.96;101539.13;5079613;27;45475;-56
2022/07/22 02:17:46;;;;;;;;;22.00;15.25;;;;;21.15;63.75;101553.34;5079467;27;45405;-56
2022/07/22 02:20:11;;;;;;;;;20.75;18.75;;;;;21.16;63.40;101563.16;5079977;27;45444;-55
2022/07/22 02:22:37;;;;;;;;;18.50;18.00;;;;;21.15;63.73;101556.06;5079324;27;45338;-53
2022/07/22 02:25:02;;;;;;;;;17.00;16.00;;;;;21.14;63.21;101550.84;5079425;27;45403;-55
2022/07/22 02:27:28;;;;;;;;;21.00;19.25;;;;;21.08;63.27;101544.34;5079644;27;45459;-55
2022/07/22 02:29:53;;;;;;;;;20.50;17.50;;;;;21.12;63.68;101555.63;5079386;27;45359;-55
2022/07/22 02:32:19;;;;;;;;;20.75;17.25;;;;;21.11;63.48;101564.75;5079191;27;47539;-56
2022/07/22 02:34:44;;;;;;;;;17.75;15.75;;;;;21.10;63.86;101560.38;5079203;27;45433;-56
2022/07/22 02:37:10;;;;;;;;;22.50;17.25;;;;;21.09;63.48;101553.28;5079476;27;45404;-54
2022/07/22 02:39:35;;;;;;;;;24.50;19.00;;;;;21.05;64.04;101541.19;5079814;27;45401;-56
2022/07/22 02:42:01;;;;;;;;;21.50;19.50;;;;;21.07;63.07;101564.31;5079113;27;45364;-55
2022/07/22 02:44:26;;;;;;;;;20.00;17.67;;;;;20.99;63.41;101564.47;5079091;27;45182;-58
2022/07/22 02:46:51;;;;;;;;;20.75;18.50;;;;;20.98;63.43;101562.78;5079214;27;45586;-56
2022/07/22 02:49:16;;;;;;;;;22.25;16.50;;;;;20.94;63.93;101561.47;5079432;27;45449;-57
2022/07/22 02:51:42;;;;;;;;;24.00;21.00;;;;;20.88;63.98;101551.47;5078924;27;45229;-55
2022/07/22 02:54:07;;;;;;;;;24.25;16.50;;;;;20.87;63.84;101545.22;5079068;27;45470;-55
2022/07/22 02:56:33;;;;;;;;;21.33;19.00;;;;;20.88;63.54;101551.47;5079112;28;45442;-62
2022/07/22 02:58:58;;;;;;;;;19.33;18.00;;;;;20.85;63.87;101554.53;5079505;27;45332;-55
2022/07/22 03:01:24;;;;;;;;;24.33;18.33;;;;;20.82;63.95;101547.69;5079214;27;45447;-55
2022/07/22 03:03:49;;;;;;;;;17.00;16.25;;;;;20.83;63.13;101546.63;5078843;28;45286;-59
2022/07/22 03:06:14;;;;;;;;;21.33;17.67;;;;;20.81;63.66;101545.16;5078957;27;45301;-61
2022/07/22 03:08:40;;;;;;;;;20.00;18.25;;;;;20.79;64.40;101539.94;5079210;27;45352;-57
2022/07/22 03:11:05;;;;;;;;;18.00;15.50;;;;;20.80;64.10;101543.47;5078713;27;46123;-58
2022/07/22 03:13:31;;;;;;;;;17.50;16.75;;;;;20.78;64.17;101538.28;5078812;27;45502;-56
2022/07/22 03:15:56;;;;;;;;;19.00;17.50;;;;;20.75;63.05;101541.38;5078858;28;45459;-54
2022/07/22 03:18:22;;;;;;;;;21.25;16.75;;;;;20.75;63.68;101535.97;5078780;27;45532;-55
2022/07/22 03:20:48;;;;;;;;;13.75;11.50;;;;;20.74;63.54;101549.69;5078584;27;47331;-55
2022/07/22 03:23:14;;;;;;;;;17.75;15.50;;;;;20.73;63.90;101539.88;5078715;27;45455;-54
2022/07/22 03:25:39;;;;;;;;;22.25;17.00;;;;;20.67;63.47;101538.78;5078747;28;45305;-54
2022/07/22 03:28:05;;;;;;;;;14.50;13.75;;;;;20.72;63.54;101540.91;5078852;27;45232;-59
2022/07/22 03:30:30;;;;;;;;;17.25;15.75;;;;;20.69;64.22;101542.16;5078394;27;45372;-55
2022/07/22 03:32:56;;;;;;;;;21.00;17.00;;;;;20.68;64.50;101545.88;5078514;28;45350;-58
2022/07/22 03:35:21;;;;;;;;;20.00;16.50;;;;;20.65;63.99;101541.69;5078292;27;45437;-58
2022/07/22 03:37:47;;;;;;;;;20.25;16.00;;;;;20.63;63.65;101551.84;5079044;27;45329;-58
2022/07/22 03:40:12;;;;;;;;;19.67;17.00;;;;;20.60;64.18;101546.81;5078065;27;45489;-56
2022/07/22 03:42:37;;;;;;;;;18.00;16.67;;;;;20.59;64.02;101539.75;5077748;27;45277;-57
2022/07/22 03:45:03;;;;;;;;;18.50;17.00;;;;;20.50;64.26;101531.97;5078503;27;45302;-57
2022/07/22 03:47:28;;;;;;;;;19.25;17.00;;;;;20.51;63.74;101537.19;5078295;28;45304;-56
2022/07/22 03:49:54;;;;;;;;;21.25;16.25;;;;;20.51;64.46;101541.75;5078110;27;45543;-57
2022/07/22 03:52:19;;;;;;;;;18.75;17.00;;;;;20.47;64.38;101537.72;5078077;27;45454;-55
2022/07/22 03:54:45;;;;;;;;;19.33;18.33;;;;;20.44;63.86;101541.66;5078180;28;45693;-56
2022/07/22 03:57:11;;;;;;;;;19.50;16.25;;;;;20.42;64.89;101536.44;5078318;27;45291;-56
2022/07/22 03:59:37;;;;;;;;;20.67;17.00;;;;;20.31;64.63;101518.03;5077711;28;46027;-56
2022/07/22 04:02:03;;;;;;;;;22.25;16.75;;;;;20.31;64.73;101525.28;5077894;28;45408;-55
2022/07/22 04:04:28;;;;;;;;;24.00;21.00;;;;;20.28;64.55;101517.59;5077884;27;45436;-55
2022/07/22 04:06:54;;;;;;;;;22.33;16.33;;;;;20.39;64.93;101536.84;5078040;27;45470;-57
2022/07/22 04:09:20;;;;;;;;;19.67;15.33;;;;;20.40;64.27;101535.81;5077933;27;46303;-57
2022/07/22 04:11:46;;;;;;;;;15.67;15.67;;;;;20.37;64.25;101536.19;5077731;27;45427;-57
2022/07/22 04:14:11;;;;;;;;;26.33;19.67;;;;;20.36;63.98;101533.69;5078029;27;45234;-57
2022/07/22 04:16:36;;;;;;;;;16.00;16.00;;;;;20.36;64.27;101541.78;5076726;27;45566;-56
2022/07/22 04:19:03;;;;;;;;;20.00;15.33;;;;;20.22;64.42;101513.75;5077473;27;45526;-56
2022/07/22 04:21:29;;;;;;;;;21.00;17.67;;;;;20.32;64.55;101543.19;5077722;27;45332;-62
2022/07/22 04:23:55;;;;;;;;;20.33;17.00;;;;;20.19;64.64;101519.56;5077669;27;45528;-55
2022/07/22 04:26:20;;;;;;;;;17.67;17.67;;;;;20.28;64.18;101533.81;5077268;27;45521;-56
2022/07/22 04:28:46;;;;;;;;;16.75;15.25;;;;;20.24;64.35;101530.63;5077618;27;45398;-56
2022/07/22 04:31:12;;;;;;;;;15.50;13.75;;;;;20.24;64.67;101533.34;5077385;28;45363;-55
2022/07/22 04:33:37;;;;;;;;;17.00;16.00;;;;;20.27;64.82;101532.09;5077458;27;45526;-57
2022/07/22 04:36:03;;;;;;;;;20.75;17.50;;;;;20.29;64.32;101522.78;5077756;27;45404;-56
2022/07/22 04:38:29;;;;;;;;;19.33;15.67;;;;;20.25;64.84;101513.41;5077354;27;47282;-55
2022/07/22 04:40:54;;;;;;;;;15.25;13.00;;;;;20.30;64.57;101518.22;5077517;27;45733;-56
2022/07/22 04:43:19;;;;;;;;;19.00;15.67;;;;;20.34;64.32;101527.63;5077497;27;45330;-57
2022/07/22 04:45:45;;;;;;;;;18.25;15.00;;;;;20.36;64.64;101526.41;5077736;28;45490;-58
2022/07/22 04:48:10;;;;;;;;;18.50;17.00;;;;;20.39;64.47;101517.94;5077079;27;45373;-56
2022/07/22 04:50:37;;;;;;;;;17.00;16.75;;;;;20.32;64.49;101500.81;5077137;27;45423;-56
2022/07/22 04:53:02;;;;;;;;;16.33;15.67;;;;;20.40;64.06;101519.59;5076477;28;45190;-56
2022/07/22 04:55:28;;;;;;;;;21.33;16.00;;;;;20.48;64.23;101524.06;5077874;27;45434;-54
2022/07/22 04:57:53;;;;;;;;;15.50;14.00;;;;;20.49;64.26;101520.31;5075947;27;47348;-54
2022/07/22 05:00:18;;;;;;;;;20.33;17.67;;;;;20.51;63.46;101520.97;5077198;27;45367;-60
2022/07/22 05:02:44;;;;;;;;;15.25;14.50;;;;;20.53;63.85;101516.22;5077410;28;45296;-58
2022/07/22 05:05:10;;;;;;;;;17.25;15.00;;;;;20.56;63.44;101507.72;5077434;27;45423;-59
2022/07/22 05:07:35;;;;;;;;;17.75;15.00;;;;;20.58;63.21;101502.13;5077231;27;45698;-55
2022/07/22 05:10:01;;;;;;;;;15.75;14.75;;;;;20.60;63.50;101497.34;5077118;27;45304;-54
2022/07/22 05:12:26;;;;;;;;;16.00;13.75;;;;;20.63;63.71;101514.00;5077142;27;45457;-55
2022/07/22 05:14:51;;;;;;;;;17.00;15.00;;;;;20.67;63.17;101514.47;5077369;28;45542;-55
2022/07/22 05:17:17;;;;;;;;;15.75;14.50;;;;;20.65;63.62;101506.56;5076917;27;45500;-55
2022/07/22 05:19:42;;;;;;;;;24.25;17.00;;;;;20.68;63.29;101508.84;5076766;28;45465;-63
2022/07/22 05:22:07;;;;;;;;;19.00;16.00;;;;;20.67;63.42;101504.47;5076919;27;45704;-58
2022/07/22 05:24:33;;;;;;;;;18.00;16.25;;;;;20.62;63.34;101493.41;5077288;27;45348;-55
2022/07/22 05:26:58;;;;;;;;;18.67;18.00;;;;;20.68;62.95;101508.84;5076918;28;46178;-54
2022/07/22 05:29:24;;;;;;;;;17.50;14.50;;;;;20.72;62.82;101509.31;5077251;27;45380;-64
2022/07/22 05:31:49;;;;;;;;;20.00;15.75;;;;;20.76;63.28;101499.75;5076994;28;45294;-55
2022/07/22 05:34:15;;;;;;;;;23.50;16.75;;;;;20.83;63.05;101500.66;5076878;27;45228;-55
2022/07/22 05:36:40;;;;;;;;;16.67;14.33;;;;;20.91;62.53;101497.81;5076845;28;46097;-55
2022/07/22 05:39:05;;;;;;;;;18.50;16.75;;;;;21.00;62.04;101497.66;5076816;28;45369;-55
2022/07/22 05:41:31;;;;;;;;;21.75;16.00;;;;;21.06;61.78;101500.41;5076986;27;45324;-61
2022/07/22 05:43:56;;;;;;;;;19.00;16.75;;;;;21.10;61.85;101509.81;5077044;27;45445;-54
2022/07/22 05:46:22;;;;;;;;;19.00;16.00;;;;;21.15;61.75;101504.66;5076404;27;46210;-56
2022/07/22 05:48:47;;;;;;;;;18.50;16.00;;;;;21.21;61.78;101497.59;5075193;28;45531;-55
2022/07/22 05:51:13;;;;;;;;;19.25;16.25;;;;;21.30;61.66;101495.56;5076840;27;45260;-54
2022/07/22 05:53:41;;;;;;;;;16.25;15.75;;;;;21.33;61.57;101500.63;5076866;27;45410;-55
2022/07/22 05:56:07;;;;;;;;;18.25;16.00;;;;;21.39;61.06;101499.81;5076448;27;45410;-58
2022/07/22 05:58:32;;;;;;;;;17.75;16.75;;;;;21.43;61.25;101490.28;5076484;27;45478;-55
2022/07/22 06:00:58;;;;;;;;;21.75;17.25;;;;;21.36;61.08;101481.28;5076895;27;45320;-56
2022/07/22 06:03:24;;;;;;;;;17.00;13.50;;;;;21.52;60.75;101499.06;5076744;27;45493;-55
2022/07/22 06:05:49;;;;;;;;;18.00;17.00;;;;;21.58;60.48;101485.56;5079588;27;47034;-55
2022/07/22 06:08:14;;;;;;;;;17.75;15.50;;;;;21.68;60.87;101483.31;5079748;27;45331;-63
2022/07/22 06:10:40;;;;;;;;;22.25;16.50;;;;;21.78;60.36;101476.66;5080056;28;45277;-56
2022/07/22 06:13:05;;;;;;;;;17.75;17.25;;;;;21.87;59.95;101480.91;5080120;27;45285;-59
2022/07/22 06:15:31;;;;;;;;;18.25;15.75;;;;;21.93;59.85;101478.19;5080107;27;46022;-55
2022/07/22 06:17:56;;;;;;;;;16.50;16.50;;;;;21.95;60.00;101483.41;5079728;27;45367;-56
2022/07/22 06:20:21;;;;;;;;;18.75;17.00;;;;;21.91;59.56;101487.56;5079662;27;45443;-56
2022/07/22 06:22:47;;;;;;;;;23.00;19.25;;;;;22.00;59.30;101507.19;5080039;27;45286;-56
2022/07/22 06:25:12;;;;;;;;;23.75;20.00;;;;;22.01;59.04;101503.44;5079635;28;45382;-57
2022/07/22 06:27:38;;;;;;;;;18.75;17.50;;;;;22.03;59.29;101499.47;5079636;28;45231;-55
2022/07/22 06:30:04;;;;;;;;;16.25;15.75;;;;;22.09;59.32;101495.13;5079591;27;45321;-57
2022/07/22 06:32:29;;;;;;;;;18.75;18.75;;;;;22.15;59.32;101489.75;5079725;28;45439;-55
2022/07/22 06:34:54;;;;;;;;;19.00;16.75;;;;;22.35;58.62;101491.66;5079113;27;45542;-55
2022/07/22 06:37:20;;;;;;;;;17.25;17.00;;;;;22.54;58.49;101492.72;5079407;27;46144;-64
2022/07/22 06:39:47;;;;;;;;;16.50;16.00;;;;;22.66;57.99;101494.59;5079539;28;45618;-55
2022/07/22 06:42:13;;;;;;;;;15.00;15.00;;;;;22.70;57.77;101486.88;5079549;28;45573;-56
2022/07/22 06:44:38;;;;;;;;;23.00;16.50;;;;;22.75;57.57;101495.22;5079192;27;46269;-55
2022/07/22 06:47:03;;;;;;;;;15.25;14.75;;;;;22.83;57.55;101488.75;5079386;27;45392;-53
2022/07/22 06:49:29;;;;;;;;;16.75;16.00;;;;;22.88;57.60;101492.53;5079232;28;45696;-61
2022/07/22 06:51:54;;;;;;;;;22.50;18.25;;;;;22.93;57.53;101485.69;5079592;27;45404;-54
2022/07/22 06:54:19;;;;;;;;;18.25;17.00;;;;;22.97;57.01;101501.31;5079191;27;45988;-54
2022/07/22 06:56:45;;;;;;;;;20.00;19.00;;;;;23.14;56.73;101497.13;5079209;27;45225;-59
2022/07/22 06:59:10;;;;;;;;;16.50;15.50;;;;;23.27;56.13;101501.69;5079211;27;45369;-55
2022/07/22 07:01:36;;;;;;;;;19.25;18.75;;;;;23.49;56.00;101504.13;5079173;27;45503;-55
2022/07/22 07:04:01;;;;;;;;;17.50;17.00;;;;;23.67;55.22;101495.31;5078727;27;46265;-54
2022/07/22 07:06:27;;;;;;;;;18.50;16.50;;;;;23.89;54.94;101491.25;5078957;27;45397;-53
2022/07/22 07:08:52;;;;;;;;;20.25;16.25;;;;;24.42;54.07;101499.13;5079089;27;45296;-57
2022/07/22 07:11:18;;;;;;;;;20.00;16.25;;;;;25.01;53.29;101500.50;5079320;27;45352;-56
2022/07/22 07:13:43;;;;;;;;;14.00;11.50;;;;;25.50;51.38;101504.22;5078734;27;46504;-55
2022/07/22 07:16:09;;;;;;;;;18.75;12.00;;;;;25.86;50.81;101495.19;5077756;27;45310;-55
2022/07/22 07:18:34;;;;;;;;;18.25;13.25;;;;;26.06;49.53;101469.56;5079034;27;45278;-56
2022/07/22 07:20:59;;;;;;;;;15.25;15.25;;;;;26.17;49.85;101457.88;5078938;27;45423;-57
2022/07/22 07:23:25;;;;;;;;;19.25;16.50;;;;;26.28;50.47;101465.25;5078691;28;46169;-55
2022/07/22 07:25:51;;;;;;;;;18.50;16.50;;;;;26.18;51.00;101469.63;5078769;27;45415;-55
2022/07/22 07:28:17;;;;;;;;;24.20;21.00;;;;;26.07;49.96;101476.69;5079176;27;45276;-56
2022/07/22 07:30:42;;;;;;;;;18.00;16.25;;;;;26.25;49.44;101482.09;5078866;28;45395;-60
2022/07/22 07:33:08;;;;;;;;;18.25;17.00;;;;;26.87;48.58;101477.09;5078533;27;45347;-56
2022/07/22 07:35:33;;;;;;;;;17.75;16.50;;;;;28.39;47.35;101466.03;5078243;27;45454;-55
2022/07/22 07:37:59;;;;;;;;;18.25;17.75;;;;;29.29;45.33;101465.78;5078686;27;45792;-65
2022/07/22 07:40:24;;;;;;;;;18.50;15.25;;;;;30.28;41.80;101461.16;5078988;28;45257;-54
2022/07/22 07:42:49;;;;;;;;;19.00;16.75;;;;;30.48;41.58;101468.75;5078515;28;45426;-55
2022/07/22 07:45:15;;;;;;;;;18.50;15.75;;;;;31.00;39.68;101477.09;5078696;27;45405;-62
2022/07/22 07:47:41;;;;;;;;;18.25;16.00;;;;;31.08;39.96;101473.03;5078492;27;45801;-61
2022/07/22 07:50:07;;;;;;;;;15.50;15.50;;;;;31.03;39.32;101473.81;5078347;27;45339;-56
2022/07/22 07:52:41;;;;;;;;;14.80;14.20;;;;;31.28;40.38;101470.41;5078149;27;45419;-55
2022/07/22 07:55:09;;;;;;;;;21.60;17.40;;;;;32.26;37.70;101482.53;5078317;28;45245;-58
2022/07/22 07:57:36;;;;;;;;;19.00;15.20;;;;;33.39;36.58;101477.75;5078333;27;45245;-55
2022/07/22 08:00:05;;;;;;;;;15.60;14.00;;;;;33.48;35.20;101474.13;5078474;27;45301;-56
2022/07/22 08:02:30;;;;;;;;;13.00;13.00;;;;;34.37;34.06;101471.38;5077998;27;45783;-56
2022/07/22 08:04:55;;;;;;;;;12.25;12.25;;;;;34.35;33.45;101481.09;5078001;27;45361;-56
2022/07/22 08:07:21;;;;;;;;;15.25;13.75;;;;;33.73;33.90;101475.94;5078398;28;45251;-58
2022/07/22 08:09:46;;;;;;;;;14.50;13.75;;;;;33.20;36.17;101477.53;5078321;27;45287;-58
2022/07/22 08:12:12;;;;;;;;;16.50;14.75;;;;;32.71;36.17;101484.50;5077834;28;45702;-62
2022/07/22 08:14:37;;;;;;;;;19.25;16.00;;;;;33.04;35.26;101479.53;5078022;27;45391;-55
2022/07/22 08:17:03;;;;;;;;;16.75;13.75;;;;;33.27;34.51;101456.81;5078135;27;45393;-55
2022/07/22 08:19:28;;;;;;;;;15.00;12.50;;;;;33.37;35.18;101466.97;5077016;27;45583;-58
2022/07/22 08:21:53;;;;;;;;;19.00;14.75;;;;;33.55;34.50;101450.94;5077612;28;46074;-60
2022/07/22 08:24:19;;;;;;;;;16.50;16.00;;;;;33.41;34.63;101459.78;5077746;27;45480;-57
2022/07/22 08:26:44;;;;;;;;;20.25;16.00;;;;;32.89;34.98;101465.72;5077564;27;45229;-55
2022/07/22 08:29:10;;;;;;;;;20.25;16.25;;;;;32.12;36.45;101453.91;5078065;28;45289;-55
2022/07/22 08:31:36;;;;;;;;;17.60;14.60;;;;;31.52;37.24;101456.19;5077495;27;46261;-56
2022/07/22 08:34:03;;;;;;;;;13.00;13.00;;;;;30.98;38.50;101451.00;5077187;27;45399;-54
2022/07/22 08:36:29;;;;;;;;;15.80;15.00;;;;;30.51;39.46;101458.06;5077855;27;45312;-59
2022/07/22 08:38:54;;;;;;;;;20.25;16.25;;;;;30.02;40.44;101460.88;5077698;28;45406;-57
2022/07/22 08:41:21;;;;;;;;;18.00;15.00;;;;;29.65;41.21;101462.66;5077455;28;45954;-54
2022/07/22 08:43:47;;;;;;;;;20.40;16.80;;;;;29.14;41.72;101462.00;5077570;27;45261;-57
2022/07/22 08:46:13;;;;;;;;;14.25;14.25;;;;;28.78;42.51;101453.22;5077567;28;45404;-55
2022/07/22 08:48:39;;;;;;;;;21.75;19.00;;;;;28.40;43.08;101462.19;5077805;27;45240;-55
2022/07/22 08:51:04;;;;;;;;;24.25;19.25;;;;;28.28;43.16;101454.06;5077260;28;45855;-54
2022/07/22 08:53:30;;;;;;;;;20.25;18.50;;;;;28.33;43.34;101456.88;5077259;27;45186;-55
2022/07/22 08:55:56;;;;;;;;;17.50;17.50;;;;;28.44;43.53;101445.03;5077658;28;45458;-54
2022/07/22 08:58:21;;;;;;;;;18.50;16.50;;;;;28.55;42.88;101416.75;5077333;27;45329;-55
2022/07/22 09:01:04;;;;;;;;;21.00;16.75;;;;;28.90;42.57;101421.09;5077201;28;45855;-55
2022/07/22 09:03:29;;;;;;;;;17.80;15.60;;;;;29.04;42.63;101395.03;5077361;27;45210;-55
2022/07/22 09:05:55;;;;;;;;;19.75;15.50;;;;;29.07;42.49;101386.28;5077275;28;45225;-55
2022/07/22 09:08:21;;;;;;;;;17.00;16.50;;;;;29.18;42.39;101375.47;5077407;28;45363;-57
2022/07/22 09:10:47;;;;;;;;;17.00;15.80;;;;;29.38;41.58;101367.50;5076647;27;45431;-55
2022/07/22 09:13:14;;;;;;;;;17.60;13.20;;;;;29.42;41.79;101371.38;5077058;27;45426;-55
2022/07/22 09:15:53;;;;;;;;;15.20;12.40;;;;;29.29;42.21;101399.19;5077352;27;45308;-55
2022/07/22 09:18:18;;;;;;;;;17.40;15.80;;;;;29.21;42.36;101402.38;5077604;28;45309;-53
2022/07/22 09:20:44;;;;;;;;;21.75;19.75;;;;;29.27;42.27;101412.31;5076729;27;45388;-53
2022/07/22 09:23:24;;;;;;;;;18.75;18.50;;;;;29.27;42.05;101401.34;5076996;27;45431;-54
2022/07/22 09:25:49;;;;;;;;;11.00;9.00;;;;;29.45;42.49;101425.66;5077123;27;45395;-55
2022/07/22 09:28:21;;;;;;;;;22.75;17.00;;;;;29.70;42.20;101435.31;5077296;27;45318;-55
2022/07/22 09:30:48;;;;;;;;;17.60;17.00;;;;;29.82;41.92;101444.22;5076877;27;46255;-55
2022/07/22 09:33:13;;;;;;;;;18.40;17.80;;;;;29.98;41.62;101443.28;5076855;27;45378;-54
2022/07/22 09:35:39;;;;;;;;;18.50;16.75;;;;;30.38;40.81;101444.75;5076847;28;45371;-57
2022/07/22 09:38:07;;;;;;;;;17.40;16.60;;;;;30.72;40.33;101433.47;5077043;27;45396;-55
2022/07/22 09:40:44;;;;;;;;;17.80;15.40;;;;;31.20;39.68;101435.16;5079600;27;46126;-56
2022/07/22 09:43:12;;;;;;;;;22.80;16.80;;;;;31.63;38.63;101426.81;5080224;27;45384;-56
2022/07/22 09:45:57;;;;;;;;;8.40;8.40;;;;;31.78;39.46;101408.44;5080287;27;45355;-57
2022/07/22 09:48:23;;;;;;;;;20.00;16.00;;;;;31.84;38.88;101403.78;5080573;27;45352;-55
2022/07/22 09:50:51;;;;;;;;;16.80;15.00;;;;;31.70;38.85;101399.88;5080059;27;46352;-54
2022/07/22 09:53:22;;;;;;;;;19.80;17.80;;;;;31.55;38.44;101412.50;5080049;27;45498;-54
2022/07/22 09:55:48;;;;;;;;;19.40;19.20;;;;;31.49;38.49;101405.34;5080468;27;45310;-55
2022/07/22 09:58:14;;;;;;;;;15.50;15.00;;;;;31.43;39.46;101422.91;5080583;27;45381;-57
2022/07/22 10:00:41;;;;;;;;;21.25;16.00;;;;;31.04;38.85;101416.94;5079949;27;45402;-54
2022/07/22 10:03:10;;;;;;;;;19.40;17.00;;;;;30.75;39.58;101424.75;5079999;27;45470;-55
2022/07/22 10:05:41;;;;;;;;;16.20;15.20;;;;;30.44;40.40;101420.94;5079834;27;45343;-54
2022/07/22 10:08:08;;;;;;;;;18.60;16.80;;;;;30.15;41.36;101410.28;5080352;27;45515;-56
2022/07/22 10:10:35;;;;;;;;;19.20;17.00;;;;;29.78;41.26;101410.16;5079915;27;45297;-55
2022/07/22 10:13:02;;;;;;;;;22.60;17.20;;;;;29.57;42.19;101409.94;5079868;28;45442;-55
2022/07/22 10:15:29;;;;;;;;;19.00;16.60;;;;;29.33;42.95;101409.38;5079910;27;45453;-54
2022/07/22 10:18:00;;;;;;;;;25.80;20.60;;;;;29.06;43.10;101411.22;5080026;27;45316;-56
2022/07/22 10:20:28;;;;;;;;;22.60;22.00;;;;;28.77;43.63;101399.56;5079463;27;46322;-54
2022/07/22 10:23:01;;;;;;;;;20.60;17.40;;;;;28.44;44.39;101408.63;5079631;27;45427;-55
2022/07/22 10:25:30;;;;;;;;;25.40;22.80;;;;;28.24;44.58;101414.59;5079815;27;45376;-54
2022/07/22 10:28:05;;;;;;;;;21.20;18.40;;;;;27.99;45.23;101420.44;5080173;27;45232;-57
2022/07/22 10:30:35;;;;;;;;;27.60;20.80;;;;;27.76;45.96;101414.00;5079481;28;45478;-55
2022/07/22 10:33:11;;;;;;;;;22.20;17.40;;;;;27.50;46.17;101392.69;5079711;27;45254;-55
2022/07/22 10:36:01;;;;;;;;;24.40;20.40;;;;;27.21;46.28;101391.84;5079665;27;45486;-55
2022/07/22 10:38:28;;;;;;;;;21.00;19.00;;;;;26.97;47.23;101377.38;5076164;28;45537;-54
2022/07/22 10:41:02;;;;;;;;;23.20;19.60;;;;;26.73;47.93;101380.16;5077885;28;45372;-55
2022/07/22 10:43:47;;;;;;;;;18.60;18.60;;;;;26.55;49.05;101381.09;5079506;28;45392;-54
2022/07/22 10:46:13;;;;;;;;;22.00;20.40;;;;;26.29;50.99;101348.78;5079476;27;45304;-54
2022/07/22 10:48:38;;;;;;;;;25.00;20.50;;;;;26.19;51.19;101343.09;5079512;27;45542;-56
2022/07/22 10:51:15;;;;;;;;;28.50;27.00;;;;;25.99;52.26;101308.81;5077424;27;45505;-55
2022/07/22 10:54:02;;;;;;;;;30.40;27.40;;;;;25.77;52.03;101283.19;5079435;27;45419;-56
2022/07/22 10:56:29;;;;;;;;;25.60;21.60;;;;;25.62;52.16;101289.88;5079452;27;45428;-56
2022/07/22 10:59:12;;;;;;;;;23.25;21.75;;;;;25.50;53.84;101297.19;5079671;27;45584;-54
2022/07/22 11:01:43;;;;;;;;;34.50;27.25;;;;;25.39;54.01;101306.97;5078708;27;45330;-53
2022/07/22 11:04:10;;;;;;;;;39.75;32.75;;;;;25.33;55.02;101329.69;5078971;27;45245;-56
2022/07/22 11:06:36;;;;;;;;;32.50;30.50;;;;;25.32;54.48;101308.94;5078784;27;45424;-53